createdAt,value
2018-08-30T00:01:21.211Z,16.43
2018-08-30T00:03:50.888Z,28.37
2018-08-30T00:06:20.599Z,33.57
2018-08-30T00:08:50.243Z,14.43
2018-08-30T00:11:20.148Z,26.47
2018-08-30T00:13:49.874Z,18.83
2018-08-30T00:16:20.069Z,25.20
2018-08-30T00:18:49.895Z,23.23
2018-08-30T00:21:19.657Z,17.10
2018-08-30T00:23:49.480Z,16.40
2018-08-30T00:26:19.302Z,18.47
2018-08-30T00:28:48.950Z,19.73
2018-08-30T00:31:18.649Z,26.93
2018-08-30T00:33:48.357Z,20.23
2018-08-30T00:36:18.091Z,21.20
2018-08-30T00:38:47.776Z,24.70
2018-08-30T00:41:17.580Z,19.53
2018-08-30T00:43:47.299Z,29.73
2018-08-30T00:46:17.079Z,18.97
2018-08-30T00:48:46.807Z,16.70
2018-08-30T00:51:16.566Z,23.60
2018-08-30T00:53:46.384Z,18.87
2018-08-30T00:56:16.279Z,20.33
2018-08-30T00:58:45.991Z,24.30
2018-08-30T01:01:15.709Z,15.70
2018-08-30T01:03:45.392Z,18.53
2018-08-30T01:06:15.168Z,27.80
2018-08-30T01:08:44.913Z,21.13
2018-08-30T01:11:14.608Z,15.67
2018-08-30T01:13:44.402Z,24.47
2018-08-30T01:16:14.073Z,17.70
2018-08-30T01:18:43.755Z,22.60
2018-08-30T01:21:13.231Z,23.87
2018-08-30T01:23:42.682Z,21.43
2018-08-30T01:26:12.138Z,21.27
2018-08-30T01:28:41.611Z,24.07
2018-08-30T01:31:11.035Z,26.50
2018-08-30T01:33:40.493Z,20.37
2018-08-30T01:36:10.022Z,20.10
2018-08-30T01:38:39.417Z,21.90
2018-08-30T01:41:09.160Z,23.23
2018-08-30T01:43:38.590Z,26.60
2018-08-30T01:46:08.019Z,17.03
2018-08-30T01:48:37.473Z,25.17
2018-08-30T01:51:07.003Z,22.40
2018-08-30T01:53:36.502Z,21.83
2018-08-30T01:56:05.962Z,21.20
2018-08-30T01:58:35.464Z,22.63
2018-08-30T02:01:04.854Z,26.23
2018-08-30T02:03:34.245Z,20.50
2018-08-30T02:06:03.622Z,23.30
2018-08-30T02:08:32.995Z,20.60
2018-08-30T02:11:02.478Z,18.33
2018-08-30T02:13:31.849Z,21.27
2018-08-30T02:16:01.262Z,21.60
2018-08-30T02:18:30.657Z,22.50
2018-08-30T02:21:00.027Z,21.93
2018-08-30T02:23:29.436Z,20.97
2018-08-30T02:25:58.888Z,25.53
2018-08-30T02:28:28.278Z,21.57
2018-08-30T02:30:57.627Z,18.93
2018-08-30T02:33:27.054Z,14.57
2018-08-30T02:35:56.503Z,20.13
2018-08-30T02:38:25.874Z,26.80
2018-08-30T02:40:55.292Z,27.03
2018-08-30T02:43:24.699Z,24.00
2018-08-30T02:45:54.110Z,25.27
2018-08-30T02:48:23.640Z,24.73
2018-08-30T02:50:52.992Z,25.13
2018-08-30T02:53:22.391Z,24.93
2018-08-30T02:55:51.785Z,28.27
2018-08-30T02:58:21.159Z,24.67
2018-08-30T03:00:53.530Z,21.70
2018-08-30T03:03:22.931Z,30.37
2018-08-30T03:05:52.336Z,20.03
2018-08-30T03:08:21.718Z,24.27
2018-08-30T03:10:51.212Z,20.50
2018-08-30T03:13:20.597Z,19.60
2018-08-30T03:15:49.986Z,23.50
2018-08-30T03:18:19.394Z,28.80
2018-08-30T03:20:48.801Z,31.50
2018-08-30T03:23:18.179Z,22.27
2018-08-30T03:25:47.852Z,19.63
2018-08-30T03:28:17.258Z,20.10
2018-08-30T03:30:46.790Z,21.17
2018-08-30T03:33:16.147Z,25.33
2018-08-30T03:35:45.557Z,31.07
2018-08-30T03:38:15.018Z,18.87
2018-08-30T03:40:44.473Z,22.97
2018-08-30T03:43:14.199Z,20.00
2018-08-30T03:45:43.578Z,30.57
2018-08-30T03:48:12.986Z,17.83
2018-08-30T03:50:42.596Z,24.70
2018-08-30T03:53:11.954Z,21.80
2018-08-30T03:55:41.406Z,20.07
2018-08-30T03:58:10.806Z,18.40
2018-08-30T04:00:40.224Z,20.53
2018-08-30T04:03:09.625Z,22.87
2018-08-30T04:05:39.016Z,21.40
2018-08-30T04:08:08.361Z,24.37
2018-08-30T04:10:37.923Z,24.07
2018-08-30T04:13:07.281Z,22.53
2018-08-30T04:15:36.691Z,19.47
2018-08-30T04:18:06.189Z,21.63
2018-08-30T04:20:35.590Z,24.47
2018-08-30T04:23:05.057Z,26.80
2018-08-30T04:25:34.644Z,23.80
2018-08-30T04:28:04.028Z,66.77
2018-08-30T04:30:33.446Z,30.10
2018-08-30T04:33:02.888Z,25.00
2018-08-30T04:35:32.287Z,24.13
2018-08-30T04:38:01.666Z,25.57
2018-08-30T04:40:31.295Z,31.33
2018-08-30T04:43:00.645Z,21.50
2018-08-30T04:45:30.127Z,36.60
2018-08-30T04:48:00.009Z,24.43
2018-08-30T04:50:29.382Z,22.53
2018-08-30T04:52:58.770Z,18.00
2018-08-30T04:55:28.199Z,20.23
2018-08-30T04:57:57.580Z,21.40
2018-08-30T05:00:26.996Z,23.47
2018-08-30T05:02:56.359Z,31.67
2018-08-30T05:05:25.823Z,29.83
2018-08-30T05:07:55.378Z,32.67
2018-08-30T05:10:24.803Z,21.03
2018-08-30T05:12:54.223Z,23.77
2018-08-30T05:15:23.643Z,31.03
2018-08-30T05:17:53.243Z,21.13
2018-08-30T05:20:22.631Z,27.27
2018-08-30T05:22:52.018Z,34.77
2018-08-30T05:25:21.419Z,25.77
2018-08-30T05:27:50.749Z,32.63
2018-08-30T05:30:20.140Z,55.70
2018-08-30T05:32:49.526Z,22.70
2018-08-30T05:35:18.893Z,28.17
2018-08-30T05:37:48.291Z,47.67
2018-08-30T05:40:17.702Z,25.63
2018-08-30T05:42:47.073Z,25.30
2018-08-30T05:45:16.458Z,27.50
2018-08-30T05:47:45.901Z,22.87
2018-08-30T05:50:22.090Z,33.83
2018-08-30T05:52:51.664Z,29.33
2018-08-30T05:55:21.035Z,24.27
2018-08-30T05:57:50.443Z,22.50
2018-08-30T06:00:19.946Z,29.43
2018-08-30T06:02:49.338Z,27.70
2018-08-30T06:05:18.698Z,35.43
2018-08-30T06:07:48.142Z,23.23
2018-08-30T06:10:17.506Z,24.90
2018-08-30T06:12:46.911Z,30.47
2018-08-30T06:15:16.329Z,40.23
2018-08-30T06:17:45.744Z,21.53
2018-08-30T06:20:15.099Z,25.03
2018-08-30T06:22:44.502Z,37.57
2018-08-30T06:25:13.890Z,38.67
2018-08-30T06:27:43.280Z,24.83
2018-08-30T06:30:12.890Z,22.27
2018-08-30T06:32:42.365Z,39.97
2018-08-30T06:35:11.750Z,33.70
2018-08-30T06:37:41.146Z,39.67
2018-08-30T06:40:10.607Z,27.63
2018-08-30T06:42:40.068Z,26.30
2018-08-30T06:45:09.524Z,24.97
2018-08-30T06:47:38.966Z,21.53
2018-08-30T06:50:08.365Z,27.87
2018-08-30T06:52:37.818Z,32.00
2018-08-30T06:55:07.255Z,26.33
2018-08-30T06:57:36.661Z,26.60
2018-08-30T07:00:06.559Z,32.60
2018-08-30T07:02:35.938Z,29.13
2018-08-30T07:05:05.538Z,20.97
2018-08-30T07:07:35.002Z,34.67
2018-08-30T07:10:04.443Z,22.03
2018-08-30T07:12:33.850Z,29.13
2018-08-30T07:15:03.543Z,25.97
2018-08-30T07:17:32.906Z,31.90
2018-08-30T07:20:02.303Z,25.07
2018-08-30T07:22:31.990Z,23.40
2018-08-30T07:25:01.347Z,28.53
2018-08-30T07:27:30.736Z,27.37
2018-08-30T07:30:00.134Z,28.07
2018-08-30T07:32:29.506Z,25.50
2018-08-30T07:34:59.042Z,30.40
2018-08-30T07:37:28.294Z,29.60
2018-08-30T07:39:57.657Z,42.73
2018-08-30T07:42:27.047Z,21.87
2018-08-30T07:44:56.455Z,23.63
2018-08-30T07:47:25.810Z,28.13
2018-08-30T07:49:55.370Z,26.67
2018-08-30T07:52:24.852Z,24.70
2018-08-30T07:54:54.235Z,30.63
2018-08-30T07:57:23.706Z,36.90
2018-08-30T07:59:53.275Z,31.10
2018-08-30T08:02:22.594Z,29.90
2018-08-30T08:04:51.988Z,35.77
2018-08-30T08:07:21.495Z,33.33
2018-08-30T08:09:50.855Z,31.20
2018-08-30T08:12:20.347Z,26.17
2018-08-30T08:14:49.766Z,32.80
2018-08-30T08:17:19.214Z,22.40
2018-08-30T08:19:48.656Z,28.27
2018-08-30T08:22:18.381Z,30.03
2018-08-30T08:24:47.828Z,27.23
2018-08-30T08:27:17.186Z,31.53
2018-08-30T08:29:46.798Z,29.17
2018-08-30T08:32:16.247Z,28.83
2018-08-30T08:34:45.670Z,30.07
2018-08-30T08:37:15.086Z,32.23
2018-08-30T08:39:44.577Z,28.77
2018-08-30T08:42:13.991Z,48.27
2018-08-30T08:44:43.440Z,31.77
2018-08-30T08:47:12.943Z,28.83
2018-08-30T08:49:42.432Z,31.30
2018-08-30T08:52:11.827Z,26.87
2018-08-30T08:54:41.224Z,35.13
2018-08-30T08:57:10.623Z,35.30
2018-08-30T08:59:40.332Z,34.87
2018-08-30T09:02:09.739Z,34.30
2018-08-30T09:04:39.139Z,34.97
2018-08-30T09:07:08.629Z,33.53
2018-08-30T09:09:37.979Z,26.30
2018-08-30T09:12:07.407Z,41.07
2018-08-30T09:14:36.830Z,40.57
2018-08-30T09:17:06.287Z,30.17
2018-08-30T09:19:35.665Z,44.10
2018-08-30T09:22:05.910Z,31.20
2018-08-30T09:24:35.288Z,31.80
2018-08-30T09:27:05.044Z,29.97
2018-08-30T09:29:34.383Z,32.30
2018-08-30T09:32:03.778Z,30.03
2018-08-30T09:34:33.189Z,28.93
2018-08-30T09:37:02.623Z,34.23
2018-08-30T09:39:31.987Z,42.80
2018-08-30T09:42:01.346Z,35.27
2018-08-30T09:44:30.806Z,36.13
2018-08-30T09:47:00.178Z,39.13
2018-08-30T09:49:29.640Z,34.13
2018-08-30T09:51:58.966Z,36.40
2018-08-30T09:54:28.551Z,38.23
2018-08-30T09:56:58.031Z,35.70
2018-08-30T09:59:27.363Z,37.43
2018-08-30T10:02:02.167Z,52.73
2018-08-30T10:04:31.694Z,37.20
2018-08-30T10:07:01.067Z,37.50
2018-08-30T10:09:30.469Z,43.30
2018-08-30T10:12:06.371Z,43.43
2018-08-30T10:14:35.697Z,41.27
2018-08-30T10:17:05.071Z,35.60
2018-08-30T10:19:34.453Z,42.97
2018-08-30T10:22:03.881Z,39.77
2018-08-30T10:24:33.266Z,42.30
2018-08-30T10:27:02.660Z,41.30
2018-08-30T10:29:32.067Z,41.83
2018-08-30T10:32:01.447Z,37.50
2018-08-30T10:34:30.874Z,42.70
2018-08-30T10:37:00.295Z,42.10
2018-08-30T10:39:29.602Z,44.03
2018-08-30T10:41:59.063Z,40.33
2018-08-30T10:44:28.587Z,35.57
2018-08-30T10:46:58.075Z,44.17
2018-08-30T10:49:27.643Z,41.67
2018-08-30T10:51:57.028Z,44.43
2018-08-30T10:54:26.463Z,42.20
2018-08-30T10:56:55.870Z,44.53
2018-08-30T10:59:25.303Z,37.80
2018-08-30T11:01:54.738Z,44.30
2018-08-30T11:04:24.257Z,36.57
2018-08-30T11:06:53.558Z,39.03
2018-08-30T11:09:22.944Z,32.77
2018-08-30T11:11:52.359Z,38.70
2018-08-30T11:14:21.783Z,40.47
2018-08-30T11:16:51.186Z,39.57
2018-08-30T11:19:20.590Z,36.73
2018-08-30T11:21:49.968Z,39.13
2018-08-30T11:24:19.354Z,45.50
2018-08-30T11:26:48.734Z,35.97
2018-08-30T11:29:18.121Z,34.10
2018-08-30T11:31:47.579Z,38.13
2018-08-30T11:34:16.978Z,37.53
2018-08-30T11:36:46.414Z,32.17
2018-08-30T11:39:15.778Z,30.00
2018-08-30T11:41:45.496Z,34.40
2018-08-30T11:44:14.909Z,27.30
2018-08-30T11:46:44.480Z,29.97
2018-08-30T11:49:13.881Z,28.20
2018-08-30T11:51:43.391Z,21.03
2018-08-30T11:54:12.814Z,22.73
2018-08-30T11:56:42.211Z,21.03
2018-08-30T11:59:11.790Z,14.20
2018-08-30T12:01:41.430Z,16.37
2018-08-30T12:04:11.349Z,11.40
2018-08-30T12:06:40.803Z,10.43
2018-08-30T12:09:10.944Z,14.40
2018-08-30T12:11:41.697Z,10.53
2018-08-30T12:14:11.056Z,9.37
2018-08-30T12:16:40.478Z,8.63
2018-08-30T12:19:09.921Z,10.10
2018-08-30T12:21:39.334Z,11.93
2018-08-30T12:24:08.722Z,9.80
2018-08-30T12:26:38.227Z,9.90
2018-08-30T12:29:07.748Z,10.80
2018-08-30T12:31:37.188Z,11.70
2018-08-30T12:34:07.176Z,12.50
2018-08-30T12:36:36.614Z,10.60
2018-08-30T12:39:08.871Z,12.73
2018-08-30T12:41:38.212Z,14.73
2018-08-30T12:44:07.698Z,21.73
2018-08-30T12:46:37.150Z,12.10
2018-08-30T12:49:06.639Z,12.60
2018-08-30T12:51:36.185Z,15.47
2018-08-30T12:54:05.631Z,18.67
2018-08-30T12:56:35.137Z,16.87
2018-08-30T12:59:09.900Z,12.47
2018-08-30T13:01:39.269Z,16.87
2018-08-30T13:04:08.912Z,16.93
2018-08-30T13:06:42.511Z,20.53
2018-08-30T13:09:12.291Z,17.40
2018-08-30T13:11:41.683Z,14.13
2018-08-30T13:14:11.274Z,20.23
2018-08-30T13:16:40.944Z,21.50
2018-08-30T13:19:10.546Z,15.80
2018-08-30T13:21:39.849Z,15.27
2018-08-30T13:24:09.259Z,20.27
2018-08-30T13:26:38.777Z,13.70
2018-08-30T13:29:08.369Z,12.00
2018-08-30T13:31:37.674Z,12.57
2018-08-30T13:34:07.150Z,12.87
2018-08-30T13:36:36.549Z,21.70
2018-08-30T13:39:09.682Z,28.17
2018-08-30T13:41:39.258Z,16.67
2018-08-30T13:44:09.983Z,13.43
2018-08-30T13:46:40.368Z,19.43
2018-08-30T13:49:10.581Z,13.17
2018-08-30T13:51:39.935Z,20.63
2018-08-30T13:54:09.432Z,15.20
2018-08-30T13:56:38.803Z,17.40
2018-08-30T13:59:08.470Z,16.97
2018-08-30T14:01:37.887Z,12.60
2018-08-30T14:04:06.988Z,11.73
2018-08-30T14:06:36.281Z,20.03
2018-08-30T14:09:06.462Z,12.53
2018-08-30T14:11:35.984Z,14.77
2018-08-30T14:14:05.310Z,17.50
2018-08-30T14:16:34.359Z,29.60
2018-08-30T14:19:03.868Z,15.10
2018-08-30T14:21:33.327Z,16.53
2018-08-30T14:24:02.885Z,14.63
2018-08-30T14:26:32.249Z,14.20
2018-08-30T14:29:01.742Z,18.27
2018-08-30T14:31:31.025Z,14.00
2018-08-30T14:34:00.422Z,17.40
2018-08-30T14:36:29.842Z,15.93
2018-08-30T14:38:59.291Z,15.80
2018-08-30T14:41:28.770Z,18.30
2018-08-30T14:43:58.015Z,32.80
2018-08-30T14:46:27.401Z,41.80
2018-08-30T14:48:56.775Z,19.17
2018-08-30T14:51:32.805Z,18.00
2018-08-30T14:54:08.889Z,15.50
2018-08-30T14:56:38.073Z,14.53
2018-08-30T14:59:07.682Z,13.47
2018-08-30T15:01:36.922Z,20.40
2018-08-30T15:04:06.295Z,18.13
2018-08-30T15:06:35.684Z,13.13
2018-08-30T15:09:06.834Z,14.40
2018-08-30T15:11:36.387Z,13.10
2018-08-30T15:14:05.862Z,15.43
2018-08-30T15:16:35.283Z,13.50
2018-08-30T15:19:04.729Z,18.20
2018-08-30T15:21:34.107Z,15.33
2018-08-30T15:24:03.564Z,14.13
2018-08-30T15:26:32.960Z,14.00
2018-08-30T15:29:02.537Z,12.60
2018-08-30T15:31:31.921Z,12.80
2018-08-30T15:34:01.467Z,12.73
2018-08-30T15:36:30.798Z,12.33
2018-08-30T15:39:00.318Z,19.10
2018-08-30T15:41:29.716Z,18.23
2018-08-30T15:43:59.122Z,16.83
2018-08-30T15:46:28.515Z,22.57
2018-08-30T15:48:58.106Z,15.63
2018-08-30T15:51:27.323Z,18.53
2018-08-30T15:53:56.777Z,17.90
2018-08-30T15:56:26.329Z,16.13
2018-08-30T15:58:55.717Z,14.53
2018-08-30T16:01:25.086Z,17.37
2018-08-30T16:03:54.458Z,16.23
2018-08-30T16:06:23.840Z,16.60
2018-08-30T16:08:53.240Z,16.97
2018-08-30T16:11:22.808Z,15.17
2018-08-30T16:13:52.081Z,14.13
2018-08-30T16:16:21.454Z,17.37
2018-08-30T16:18:51.001Z,13.07
2018-08-30T16:21:20.192Z,15.10
2018-08-30T16:23:50.491Z,13.07
2018-08-30T16:26:19.916Z,12.10
2018-08-30T16:28:49.287Z,12.30
2018-08-30T16:31:18.720Z,12.13
2018-08-30T16:33:48.149Z,13.33
2018-08-30T16:36:19.303Z,14.70
2018-08-30T16:38:48.696Z,17.23
2018-08-30T16:41:18.283Z,10.83
2018-08-30T16:43:47.443Z,25.00
2018-08-30T16:46:16.849Z,12.53
2018-08-30T16:48:46.269Z,14.50
2018-08-30T16:51:15.618Z,12.33
2018-08-30T16:53:45.022Z,12.40
2018-08-30T16:56:14.531Z,12.30
2018-08-30T16:58:43.908Z,11.30
2018-08-30T17:01:13.314Z,11.70
2018-08-30T17:03:42.841Z,16.97
2018-08-30T17:06:12.197Z,12.23
2018-08-30T17:08:41.889Z,10.37
2018-08-30T17:11:11.242Z,10.70
2018-08-30T17:13:40.610Z,9.27
2018-08-30T17:16:10.059Z,9.57
2018-08-30T17:18:40.073Z,8.70
2018-08-30T17:21:09.559Z,9.40
2018-08-30T17:23:38.904Z,7.00
2018-08-30T17:26:08.287Z,7.00
2018-08-30T17:28:37.774Z,7.47
2018-08-30T17:31:07.332Z,6.40
2018-08-30T17:33:36.706Z,7.30
2018-08-30T17:36:07.782Z,7.17
2018-08-30T17:38:38.522Z,7.50
2018-08-30T17:41:07.979Z,7.33
2018-08-30T17:43:37.411Z,9.00
2018-08-30T17:46:06.876Z,9.10
2018-08-30T17:48:36.300Z,10.37
2018-08-30T17:51:05.763Z,10.80
2018-08-30T17:53:35.302Z,11.50
2018-08-30T17:56:04.964Z,14.43
2018-08-30T17:58:34.265Z,13.67
2018-08-30T18:01:03.660Z,15.33
2018-08-30T18:03:33.124Z,15.57
2018-08-30T18:06:02.578Z,14.70
2018-08-30T18:08:32.035Z,14.70
2018-08-30T18:11:01.989Z,14.80
2018-08-30T18:13:31.414Z,12.60
2018-08-30T18:16:00.876Z,13.57
2018-08-30T18:18:30.339Z,12.27
2018-08-30T18:20:59.757Z,12.27
2018-08-30T18:23:29.198Z,13.63
2018-08-30T18:25:58.598Z,15.40
2018-08-30T18:28:27.974Z,11.90
2018-08-30T18:30:57.477Z,10.97
2018-08-30T18:33:26.870Z,9.77
2018-08-30T18:35:56.314Z,9.93
2018-08-30T18:38:25.899Z,12.17
2018-08-30T18:40:55.326Z,12.03
2018-08-30T18:43:24.846Z,11.63
2018-08-30T18:45:54.262Z,11.10
2018-08-30T18:48:23.754Z,10.00
2018-08-30T18:50:53.157Z,12.80
2018-08-30T18:53:22.719Z,26.57
2018-08-30T18:55:52.294Z,12.17
2018-08-30T18:58:21.730Z,12.97
2018-08-30T19:00:51.224Z,11.83
2018-08-30T19:03:20.804Z,13.27
2018-08-30T19:05:50.262Z,13.33
2018-08-30T19:08:19.670Z,14.03
2018-08-30T19:10:49.074Z,12.10
2018-08-30T19:13:18.494Z,14.47
2018-08-30T19:15:53.372Z,12.40
2018-08-30T19:18:28.080Z,11.40
2018-08-30T19:20:58.112Z,11.60
2018-08-30T19:23:27.474Z,11.40
2018-08-30T19:25:56.906Z,10.37
2018-08-30T19:28:26.338Z,10.57
2018-08-30T19:30:55.765Z,12.80
2018-08-30T19:33:25.358Z,13.77
2018-08-30T19:36:58.751Z,8.93
2018-08-30T19:39:28.199Z,10.50
2018-08-30T19:41:57.662Z,10.63
2018-08-30T19:44:27.425Z,9.23
2018-08-30T19:46:56.830Z,8.27
2018-08-30T19:49:26.234Z,8.83
2018-08-30T19:51:55.646Z,8.73
2018-08-30T19:54:25.082Z,10.20
2018-08-30T19:56:54.649Z,8.80
2018-08-30T19:59:24.339Z,8.37
2018-08-30T20:02:25.005Z,8.27
2018-08-30T20:04:54.367Z,8.27
2018-08-30T20:07:23.807Z,7.83
2018-08-30T20:09:53.168Z,8.57
2018-08-30T20:12:22.657Z,10.80
2018-08-30T20:14:52.130Z,9.07
2018-08-30T20:17:21.634Z,8.27
2018-08-30T20:19:51.197Z,8.70
2018-08-30T20:22:20.691Z,9.00
2018-08-30T20:24:50.062Z,8.07
2018-08-30T20:27:19.611Z,12.07
2018-08-30T20:29:49.096Z,6.83
2018-08-30T20:32:18.716Z,9.90
2018-08-30T20:34:48.484Z,7.97
2018-08-30T20:37:17.927Z,19.37
2018-08-30T20:39:47.646Z,9.10
2018-08-30T20:42:17.051Z,9.90
2018-08-30T20:44:46.422Z,6.93
2018-08-30T20:47:15.921Z,9.57
2018-08-30T20:49:45.456Z,8.40
2018-08-30T20:52:14.938Z,13.73
2018-08-30T20:54:44.474Z,7.47
2018-08-30T20:57:14.415Z,13.23
2018-08-30T20:59:43.821Z,11.00
2018-08-30T21:02:13.479Z,11.77
2018-08-30T21:04:42.890Z,11.20
2018-08-30T21:07:12.284Z,6.20
2018-08-30T21:09:41.658Z,14.63
2018-08-30T21:12:11.057Z,7.17
2018-08-30T21:14:40.403Z,17.10
2018-08-30T21:17:09.791Z,14.70
2018-08-30T21:19:40.165Z,11.60
2018-08-30T21:22:09.603Z,9.20
2018-08-30T21:24:38.983Z,10.37
2018-08-30T21:27:08.378Z,11.67
2018-08-30T21:29:37.755Z,15.70
2018-08-30T21:32:07.210Z,11.30
2018-08-30T21:34:36.578Z,18.87
2018-08-30T21:37:06.179Z,31.57
2018-08-30T21:39:35.729Z,9.40
2018-08-30T21:42:05.145Z,11.30
2018-08-30T21:44:34.564Z,25.83
2018-08-30T21:47:04.004Z,11.73
2018-08-30T21:49:33.451Z,21.13
2018-08-30T21:52:02.838Z,12.17
2018-08-30T21:54:32.275Z,15.67
2018-08-30T21:57:01.822Z,22.77
2018-08-30T21:59:31.224Z,14.93
2018-08-30T22:02:00.795Z,9.23
2018-08-30T22:04:30.677Z,13.50
2018-08-30T22:07:00.040Z,15.30
2018-08-30T22:09:29.415Z,13.93
2018-08-30T22:11:58.847Z,17.80
2018-08-30T22:14:28.257Z,12.77
2018-08-30T22:16:57.619Z,16.23
2018-08-30T22:19:27.015Z,13.27
2018-08-30T22:21:56.424Z,15.03
2018-08-30T22:24:25.901Z,20.20
2018-08-30T22:26:55.279Z,11.80
2018-08-30T22:29:24.659Z,12.97
2018-08-30T22:31:54.041Z,25.80
2018-08-30T22:34:23.490Z,11.27
2018-08-30T22:36:52.864Z,15.43
2018-08-30T22:39:22.245Z,19.80
2018-08-30T22:41:51.647Z,13.97
2018-08-30T22:44:21.037Z,13.20
2018-08-30T22:46:50.413Z,22.33
2018-08-30T22:49:19.829Z,9.13
2018-08-30T22:51:49.278Z,20.93
2018-08-30T22:54:18.718Z,32.33
2018-08-30T22:56:48.142Z,22.30
2018-08-30T22:59:17.531Z,10.60
2018-08-30T23:01:46.915Z,6.43
2018-08-30T23:04:16.402Z,17.33
2018-08-30T23:06:45.939Z,10.53
2018-08-30T23:09:15.238Z,17.27
2018-08-30T23:11:44.622Z,14.20
2018-08-30T23:14:14.074Z,18.43
2018-08-30T23:16:43.434Z,9.13
2018-08-30T23:19:12.819Z,22.40
2018-08-30T23:21:42.204Z,16.00
2018-08-30T23:24:11.651Z,17.57
2018-08-30T23:26:41.105Z,9.57
2018-08-30T23:29:10.493Z,12.57
2018-08-30T23:31:40.039Z,15.27
2018-08-30T23:34:09.633Z,9.23
2018-08-30T23:36:39.260Z,23.67
2018-08-30T23:39:10.980Z,28.63
2018-08-30T23:41:40.406Z,12.00
2018-08-30T23:44:10.215Z,17.33
2018-08-30T23:46:39.946Z,16.93
2018-08-30T23:49:09.309Z,9.73
2018-08-30T23:51:38.665Z,4.97
2018-08-30T23:54:08.447Z,15.30
2018-08-30T23:56:38.011Z,26.80
2018-08-30T23:59:24.546Z,14.50
